AirportContent of METAR report
LYBEMETAR LYBE 170230Z 13019KT CAVOK 13/08 Q1016 NOSIG=
LYBTMETAR LYBT 170230Z 08011KT CAVOK 11/08 Q1016 NOSIG=
LYKVMETAR LYKV 170230Z 13007KT 100V160 CAVOK 13/10 Q1017 NOSIG=
LYNIMETAR LYNI 170230Z 10013KT CAVOK 13/07 Q1019 NOSIG=
LYVRMETAR LYVR 170230Z AUTO 14024G45KT CAVOK 15/09 Q1016=
LYUZMETAR LYUZ 170230Z AUTO 10007KT CAVOK 07/05 Q1017=
LYPGMETAR LYPG 170230Z 33003KT 9999 FEW050 BKN080 11/11 Q1016 NOSIG=
LYTVMETAR LYTV 170230Z VRB01KT 9999 FEW060 SCT080 13/12 Q1014=

Data loaded: 2019-11-17 02:40:34 UTC

METAR, TAF, AIRMET, GAMET, SIGMET

Important note: MET information on these web pages are informative and restricted to aeronautical users, must not be used for any commercial purpose, and do not replace flight documentation.